sensor_id;sensor_type;location;lat;lon;timestamp;P1;durP1;ratioP1;P2;durP2;ratioP2
17727;SDS011;8984;49.268;12.302;2024-02-21T00:02:06;11.03;;;5.70;;
17727;SDS011;8984;49.268;12.302;2024-02-21T00:04:33;12.63;;;5.67;;
17727;SDS011;8984;49.268;12.302;2024-02-21T00:07:00;11.13;;;5.20;;
17727;SDS011;8984;49.268;12.302;2024-02-21T00:09:27;11.97;;;5.23;;
17727;SDS011;8984;49.268;12.302;2024-02-21T00:11:55;12.17;;;5.17;;
17727;SDS011;8984;49.268;12.302;2024-02-21T00:14:23;13.57;;;4.57;;
17727;SDS011;8984;49.268;12.302;2024-02-21T00:16:50;10.50;;;4.67;;
17727;SDS011;8984;49.268;12.302;2024-02-21T00:19:17;10.70;;;4.23;;
17727;SDS011;8984;49.268;12.302;2024-02-21T00:21:44;9.10;;;3.80;;
17727;SDS011;8984;49.268;12.302;2024-02-21T00:24:10;8.77;;;4.13;;
17727;SDS011;8984;49.268;12.302;2024-02-21T00:26:37;11.67;;;4.37;;
17727;SDS011;8984;49.268;12.302;2024-02-21T00:29:05;7.80;;;3.67;;
17727;SDS011;8984;49.268;12.302;2024-02-21T00:31:32;9.03;;;4.07;;
17727;SDS011;8984;49.268;12.302;2024-02-21T00:33:59;9.67;;;4.10;;
17727;SDS011;8984;49.268;12.302;2024-02-21T00:36:25;9.37;;;4.30;;
17727;SDS011;8984;49.268;12.302;2024-02-21T00:38:52;13.90;;;4.13;;
17727;SDS011;8984;49.268;12.302;2024-02-21T00:41:19;8.43;;;4.00;;
17727;SDS011;8984;49.268;12.302;2024-02-21T00:43:46;8.73;;;4.00;;
17727;SDS011;8984;49.268;12.302;2024-02-21T00:46:15;8.03;;;3.77;;
17727;SDS011;8984;49.268;12.302;2024-02-21T00:48:41;9.87;;;4.63;;
17727;SDS011;8984;49.268;12.302;2024-02-21T00:51:08;8.40;;;3.90;;
17727;SDS011;8984;49.268;12.302;2024-02-21T00:53:35;9.07;;;3.70;;
17727;SDS011;8984;49.268;12.302;2024-02-21T00:56:03;8.93;;;4.10;;
17727;SDS011;8984;49.268;12.302;2024-02-21T00:58:30;8.33;;;4.13;;
17727;SDS011;8984;49.268;12.302;2024-02-21T01:00:57;8.67;;;3.87;;
17727;SDS011;8984;49.268;12.302;2024-02-21T01:03:25;9.97;;;3.90;;
17727;SDS011;8984;49.268;12.302;2024-02-21T01:05:52;8.73;;;4.07;;
17727;SDS011;8984;49.268;12.302;2024-02-21T01:08:19;8.17;;;4.33;;
17727;SDS011;8984;49.268;12.302;2024-02-21T01:10:46;12.63;;;4.07;;
17727;SDS011;8984;49.268;12.302;2024-02-21T01:13:12;11.90;;;4.33;;
17727;SDS011;8984;49.268;12.302;2024-02-21T01:15:39;9.07;;;3.90;;
17727;SDS011;8984;49.268;12.302;2024-02-21T01:18:06;9.63;;;3.90;;
17727;SDS011;8984;49.268;12.302;2024-02-21T01:20:34;9.30;;;4.13;;
17727;SDS011;8984;49.268;12.302;2024-02-21T01:23:01;8.20;;;4.10;;
17727;SDS011;8984;49.268;12.302;2024-02-21T01:25:28;9.83;;;4.07;;
17727;SDS011;8984;49.268;12.302;2024-02-21T01:27:54;13.10;;;4.30;;
17727;SDS011;8984;49.268;12.302;2024-02-21T01:30:21;8.93;;;3.67;;
17727;SDS011;8984;49.268;12.302;2024-02-21T01:32:48;10.30;;;4.50;;
17727;SDS011;8984;49.268;12.302;2024-02-21T01:35:15;12.37;;;4.77;;
17727;SDS011;8984;49.268;12.302;2024-02-21T01:37:44;11.80;;;4.20;;
17727;SDS011;8984;49.268;12.302;2024-02-21T01:40:11;10.67;;;4.20;;
17727;SDS011;8984;49.268;12.302;2024-02-21T01:42:38;11.40;;;4.33;;
17727;SDS011;8984;49.268;12.302;2024-02-21T01:45:06;11.97;;;4.77;;
17727;SDS011;8984;49.268;12.302;2024-02-21T01:47:33;15.07;;;4.30;;
17727;SDS011;8984;49.268;12.302;2024-02-21T01:50:00;14.90;;;4.40;;
17727;SDS011;8984;49.268;12.302;2024-02-21T01:52:28;12.10;;;4.70;;
17727;SDS011;8984;49.268;12.302;2024-02-21T01:54:57;8.93;;;4.20;;
17727;SDS011;8984;49.268;12.302;2024-02-21T01:57:24;12.33;;;4.00;;
17727;SDS011;8984;49.268;12.302;2024-02-21T01:59:51;12.37;;;4.30;;
17727;SDS011;8984;49.268;12.302;2024-02-21T02:02:18;9.70;;;4.20;;
17727;SDS011;8984;49.268;12.302;2024-02-21T02:04:45;11.80;;;4.47;;
17727;SDS011;8984;49.268;12.302;2024-02-21T02:07:12;13.90;;;4.70;;
17727;SDS011;8984;49.268;12.302;2024-02-21T02:09:39;10.10;;;4.30;;
17727;SDS011;8984;49.268;12.302;2024-02-21T02:12:07;9.27;;;4.13;;
17727;SDS011;8984;49.268;12.302;2024-02-21T02:14:35;12.97;;;4.13;;
17727;SDS011;8984;49.268;12.302;2024-02-21T02:17:01;10.53;;;4.37;;
17727;SDS011;8984;49.268;12.302;2024-02-21T02:19:28;14.20;;;4.80;;
17727;SDS011;8984;49.268;12.302;2024-02-21T02:21:56;8.93;;;3.63;;
17727;SDS011;8984;49.268;12.302;2024-02-21T02:24:28;11.20;;;3.63;;
17727;SDS011;8984;49.268;12.302;2024-02-21T02:26:55;8.40;;;4.00;;
17727;SDS011;8984;49.268;12.302;2024-02-21T02:29:21;8.90;;;3.90;;
17727;SDS011;8984;49.268;12.302;2024-02-21T02:31:49;15.80;;;4.70;;
17727;SDS011;8984;49.268;12.302;2024-02-21T02:34:15;10.23;;;3.83;;
17727;SDS011;8984;49.268;12.302;2024-02-21T02:36:42;13.27;;;4.47;;
17727;SDS011;8984;49.268;12.302;2024-02-21T02:39:09;9.77;;;3.97;;
17727;SDS011;8984;49.268;12.302;2024-02-21T02:41:37;11.60;;;4.10;;
17727;SDS011;8984;49.268;12.302;2024-02-21T02:44:04;11.10;;;4.33;;
17727;SDS011;8984;49.268;12.302;2024-02-21T02:46:30;12.57;;;4.03;;
17727;SDS011;8984;49.268;12.302;2024-02-21T02:48:57;7.50;;;3.53;;
17727;SDS011;8984;49.268;12.302;2024-02-21T02:51:24;10.90;;;3.80;;
17727;SDS011;8984;49.268;12.302;2024-02-21T02:53:51;10.40;;;4.10;;
17727;SDS011;8984;49.268;12.302;2024-02-21T02:56:18;11.00;;;4.30;;
17727;SDS011;8984;49.268;12.302;2024-02-21T02:58:46;12.20;;;4.50;;
17727;SDS011;8984;49.268;12.302;2024-02-21T03:01:12;13.90;;;5.30;;
17727;SDS011;8984;49.268;12.302;2024-02-21T03:03:40;11.40;;;4.80;;
17727;SDS011;8984;49.268;12.302;2024-02-21T03:06:06;10.40;;;4.60;;
17727;SDS011;8984;49.268;12.302;2024-02-21T03:08:33;10.00;;;4.13;;
17727;SDS011;8984;49.268;12.302;2024-02-21T03:11:00;9.93;;;3.90;;
17727;SDS011;8984;49.268;12.302;2024-02-21T03:13:27;11.70;;;4.13;;
17727;SDS011;8984;49.268;12.302;2024-02-21T03:15:55;10.83;;;4.13;;
17727;SDS011;8984;49.268;12.302;2024-02-21T03:18:21;11.47;;;4.40;;
17727;SDS011;8984;49.268;12.302;2024-02-21T03:20:48;10.17;;;4.33;;
17727;SDS011;8984;49.268;12.302;2024-02-21T03:23:15;13.20;;;4.13;;
17727;SDS011;8984;49.268;12.302;2024-02-21T03:25:42;10.20;;;4.27;;
17727;SDS011;8984;49.268;12.302;2024-02-21T03:28:09;10.27;;;4.17;;
17727;SDS011;8984;49.268;12.302;2024-02-21T03:30:35;10.60;;;3.83;;
17727;SDS011;8984;49.268;12.302;2024-02-21T03:33:03;11.87;;;4.70;;
17727;SDS011;8984;49.268;12.302;2024-02-21T03:35:30;12.07;;;4.27;;
17727;SDS011;8984;49.268;12.302;2024-02-21T03:37:57;9.67;;;4.57;;
17727;SDS011;8984;49.268;12.302;2024-02-21T03:40:24;12.33;;;4.53;;
17727;SDS011;8984;49.268;12.302;2024-02-21T03:42:50;14.00;;;5.30;;
17727;SDS011;8984;49.268;12.302;2024-02-21T03:45:17;9.63;;;4.80;;
17727;SDS011;8984;49.268;12.302;2024-02-21T03:47:44;12.80;;;5.63;;
17727;SDS011;8984;49.268;12.302;2024-02-21T03:50:12;14.43;;;5.20;;
17727;SDS011;8984;49.268;12.302;2024-02-21T03:52:39;12.10;;;5.37;;
17727;SDS011;8984;49.268;12.302;2024-02-21T03:55:06;12.97;;;5.47;;
17727;SDS011;8984;49.268;12.302;2024-02-21T03:57:34;12.23;;;4.77;;
17727;SDS011;8984;49.268;12.302;2024-02-21T04:00:01;12.27;;;4.67;;
17727;SDS011;8984;49.268;12.302;2024-02-21T04:02:28;13.00;;;5.53;;
17727;SDS011;8984;49.268;12.302;2024-02-21T04:04:55;16.23;;;6.10;;
17727;SDS011;8984;49.268;12.302;2024-02-21T04:07:23;16.07;;;6.00;;
17727;SDS011;8984;49.268;12.302;2024-02-21T04:09:50;12.70;;;5.23;;
17727;SDS011;8984;49.268;12.302;2024-02-21T04:12:17;12.97;;;5.63;;
17727;SDS011;8984;49.268;12.302;2024-02-21T04:14:43;15.10;;;5.50;;
17727;SDS011;8984;49.268;12.302;2024-02-21T04:17:10;13.17;;;5.67;;
17727;SDS011;8984;49.268;12.302;2024-02-21T04:19:37;12.83;;;5.00;;
17727;SDS011;8984;49.268;12.302;2024-02-21T04:22:05;12.80;;;5.47;;
17727;SDS011;8984;49.268;12.302;2024-02-21T04:24:33;10.47;;;4.63;;
17727;SDS011;8984;49.268;12.302;2024-02-21T04:27:00;12.47;;;5.20;;
17727;SDS011;8984;49.268;12.302;2024-02-21T04:29:27;13.30;;;5.87;;
17727;SDS011;8984;49.268;12.302;2024-02-21T04:31:54;12.70;;;5.00;;
17727;SDS011;8984;49.268;12.302;2024-02-21T04:34:21;12.67;;;5.30;;
17727;SDS011;8984;49.268;12.302;2024-02-21T04:36:47;14.63;;;5.37;;
17727;SDS011;8984;49.268;12.302;2024-02-21T04:39:14;13.33;;;5.33;;
17727;SDS011;8984;49.268;12.302;2024-02-21T04:41:42;10.00;;;4.60;;
17727;SDS011;8984;49.268;12.302;2024-02-21T04:44:09;11.33;;;5.13;;
17727;SDS011;8984;49.268;12.302;2024-02-21T04:46:36;15.10;;;5.50;;
17727;SDS011;8984;49.268;12.302;2024-02-21T04:49:03;11.37;;;5.07;;
17727;SDS011;8984;49.268;12.302;2024-02-21T04:51:29;12.73;;;5.50;;
17727;SDS011;8984;49.268;12.302;2024-02-21T04:53:57;10.93;;;5.13;;
17727;SDS011;8984;49.268;12.302;2024-02-21T04:56:23;9.60;;;5.20;;
17727;SDS011;8984;49.268;12.302;2024-02-21T04:58:51;15.63;;;5.83;;
17727;SDS011;8984;49.268;12.302;2024-02-21T05:01:18;10.63;;;5.60;;
17727;SDS011;8984;49.268;12.302;2024-02-21T05:03:45;14.30;;;6.70;;
17727;SDS011;8984;49.268;12.302;2024-02-21T05:06:12;12.77;;;6.03;;
17727;SDS011;8984;49.268;12.302;2024-02-21T05:08:39;11.53;;;6.17;;
17727;SDS011;8984;49.268;12.302;2024-02-21T05:11:06;12.97;;;5.90;;
17727;SDS011;8984;49.268;12.302;2024-02-21T05:13:33;16.73;;;6.13;;
17727;SDS011;8984;49.268;12.302;2024-02-21T05:16:01;15.10;;;6.10;;
17727;SDS011;8984;49.268;12.302;2024-02-21T05:18:28;10.17;;;5.80;;
17727;SDS011;8984;49.268;12.302;2024-02-21T05:20:56;14.97;;;6.70;;
17727;SDS011;8984;49.268;12.302;2024-02-21T05:23:23;10.57;;;5.67;;
17727;SDS011;8984;49.268;12.302;2024-02-21T05:25:49;12.17;;;6.10;;
17727;SDS011;8984;49.268;12.302;2024-02-21T05:28:16;13.10;;;5.80;;
17727;SDS011;8984;49.268;12.302;2024-02-21T05:30:43;11.83;;;6.43;;
17727;SDS011;8984;49.268;12.302;2024-02-21T05:33:12;12.30;;;6.30;;
17727;SDS011;8984;49.268;12.302;2024-02-21T05:35:46;14.53;;;6.60;;
17727;SDS011;8984;49.268;12.302;2024-02-21T05:38:13;15.60;;;6.13;;
17727;SDS011;8984;49.268;12.302;2024-02-21T05:40:39;16.40;;;7.43;;
17727;SDS011;8984;49.268;12.302;2024-02-21T05:43:07;15.87;;;8.10;;
17727;SDS011;8984;49.268;12.302;2024-02-21T05:45:34;17.33;;;8.27;;
17727;SDS011;8984;49.268;12.302;2024-02-21T05:48:01;13.13;;;7.73;;
17727;SDS011;8984;49.268;12.302;2024-02-21T05:50:30;13.70;;;6.67;;
17727;SDS011;8984;49.268;12.302;2024-02-21T05:52:57;13.80;;;6.07;;
17727;SDS011;8984;49.268;12.302;2024-02-21T05:55:24;14.10;;;6.97;;
17727;SDS011;8984;49.268;12.302;2024-02-21T05:57:53;9.87;;;6.60;;
17727;SDS011;8984;49.268;12.302;2024-02-21T06:00:20;12.53;;;5.97;;
17727;SDS011;8984;49.268;12.302;2024-02-21T06:02:47;11.50;;;5.83;;
17727;SDS011;8984;49.268;12.302;2024-02-21T06:05:14;11.03;;;5.80;;
17727;SDS011;8984;49.268;12.302;2024-02-21T06:07:43;11.77;;;5.80;;
17727;SDS011;8984;49.268;12.302;2024-02-21T06:10:09;10.83;;;5.50;;
17727;SDS011;8984;49.268;12.302;2024-02-21T06:12:36;11.60;;;5.43;;
17727;SDS011;8984;49.268;12.302;2024-02-21T06:15:03;10.20;;;5.53;;
17727;SDS011;8984;49.268;12.302;2024-02-21T06:17:31;13.80;;;5.93;;
17727;SDS011;8984;49.268;12.302;2024-02-21T06:19:58;15.33;;;6.57;;
17727;SDS011;8984;49.268;12.302;2024-02-21T06:22:25;16.63;;;5.70;;
17727;SDS011;8984;49.268;12.302;2024-02-21T06:24:53;11.10;;;5.40;;
17727;SDS011;8984;49.268;12.302;2024-02-21T06:27:20;14.63;;;5.63;;
17727;SDS011;8984;49.268;12.302;2024-02-21T06:29:47;11.47;;;6.23;;
17727;SDS011;8984;49.268;12.302;2024-02-21T06:32:13;14.07;;;6.23;;
17727;SDS011;8984;49.268;12.302;2024-02-21T06:34:40;16.50;;;8.67;;
17727;SDS011;8984;49.268;12.302;2024-02-21T06:37:07;12.77;;;6.80;;
17727;SDS011;8984;49.268;12.302;2024-02-21T06:39:34;13.03;;;6.40;;
17727;SDS011;8984;49.268;12.302;2024-02-21T06:42:04;12.93;;;6.47;;
17727;SDS011;8984;49.268;12.302;2024-02-21T06:44:31;14.83;;;6.43;;
17727;SDS011;8984;49.268;12.302;2024-02-21T06:47:01;12.50;;;5.73;;
17727;SDS011;8984;49.268;12.302;2024-02-21T06:49:28;11.10;;;5.47;;
17727;SDS011;8984;49.268;12.302;2024-02-21T06:51:55;12.37;;;5.27;;
17727;SDS011;8984;49.268;12.302;2024-02-21T06:54:22;16.40;;;5.73;;
17727;SDS011;8984;49.268;12.302;2024-02-21T06:56:48;10.37;;;4.73;;
17727;SDS011;8984;49.268;12.302;2024-02-21T06:59:17;11.93;;;6.07;;
17727;SDS011;8984;49.268;12.302;2024-02-21T07:01:44;15.30;;;5.97;;
17727;SDS011;8984;49.268;12.302;2024-02-21T07:04:11;14.07;;;6.00;;
17727;SDS011;8984;49.268;12.302;2024-02-21T07:06:38;13.17;;;6.03;;
17727;SDS011;8984;49.268;12.302;2024-02-21T07:09:05;15.50;;;6.33;;
17727;SDS011;8984;49.268;12.302;2024-02-21T07:11:32;13.47;;;5.77;;
17727;SDS011;8984;49.268;12.302;2024-02-21T07:13:59;11.20;;;5.97;;
17727;SDS011;8984;49.268;12.302;2024-02-21T07:16:27;11.93;;;6.37;;
17727;SDS011;8984;49.268;12.302;2024-02-21T07:18:54;14.73;;;5.77;;
17727;SDS011;8984;49.268;12.302;2024-02-21T07:21:21;10.60;;;5.03;;
17727;SDS011;8984;49.268;12.302;2024-02-21T07:23:48;11.50;;;5.20;;
17727;SDS011;8984;49.268;12.302;2024-02-21T07:26:15;10.23;;;5.00;;
17727;SDS011;8984;49.268;12.302;2024-02-21T07:28:41;9.50;;;4.53;;
17727;SDS011;8984;49.268;12.302;2024-02-21T07:31:08;13.17;;;5.30;;
17727;SDS011;8984;49.268;12.302;2024-02-21T07:33:36;13.77;;;4.97;;
17727;SDS011;8984;49.268;12.302;2024-02-21T07:36:05;12.67;;;5.60;;
17727;SDS011;8984;49.268;12.302;2024-02-21T07:38:33;12.47;;;5.33;;
17727;SDS011;8984;49.268;12.302;2024-02-21T07:41:00;10.83;;;5.07;;
17727;SDS011;8984;49.268;12.302;2024-02-21T07:43:27;10.20;;;4.80;;
17727;SDS011;8984;49.268;12.302;2024-02-21T07:45:54;13.27;;;4.57;;
17727;SDS011;8984;49.268;12.302;2024-02-21T07:48:21;11.00;;;4.70;;
17727;SDS011;8984;49.268;12.302;2024-02-21T07:50:50;12.87;;;4.60;;
17727;SDS011;8984;49.268;12.302;2024-02-21T07:53:17;9.33;;;4.70;;
17727;SDS011;8984;49.268;12.302;2024-02-21T07:55:45;11.47;;;4.53;;
17727;SDS011;8984;49.268;12.302;2024-02-21T07:58:12;15.03;;;5.23;;
17727;SDS011;8984;49.268;12.302;2024-02-21T08:00:39;9.07;;;4.10;;
17727;SDS011;8984;49.268;12.302;2024-02-21T08:03:06;13.43;;;5.20;;
17727;SDS011;8984;49.268;12.302;2024-02-21T08:05:34;8.67;;;3.83;;
17727;SDS011;8984;49.268;12.302;2024-02-21T08:08:02;12.80;;;4.73;;
17727;SDS011;8984;49.268;12.302;2024-02-21T08:10:29;6.37;;;3.83;;
17727;SDS011;8984;49.268;12.302;2024-02-21T08:12:56;10.90;;;4.40;;
17727;SDS011;8984;49.268;12.302;2024-02-21T08:15:23;11.90;;;5.30;;
17727;SDS011;8984;49.268;12.302;2024-02-21T08:17:53;12.43;;;4.80;;
17727;SDS011;8984;49.268;12.302;2024-02-21T08:20:24;12.17;;;5.10;;
17727;SDS011;8984;49.268;12.302;2024-02-21T08:22:51;13.37;;;5.10;;
17727;SDS011;8984;49.268;12.302;2024-02-21T08:25:19;9.13;;;4.63;;
17727;SDS011;8984;49.268;12.302;2024-02-21T08:27:46;9.83;;;4.30;;
17727;SDS011;8984;49.268;12.302;2024-02-21T08:30:13;13.37;;;4.60;;
17727;SDS011;8984;49.268;12.302;2024-02-21T08:32:40;10.97;;;4.40;;
17727;SDS011;8984;49.268;12.302;2024-02-21T08:35:07;11.03;;;4.90;;
17727;SDS011;8984;49.268;12.302;2024-02-21T08:37:34;9.43;;;4.23;;
17727;SDS011;8984;49.268;12.302;2024-02-21T08:40:01;10.43;;;4.57;;
17727;SDS011;8984;49.268;12.302;2024-02-21T08:42:34;16.43;;;4.60;;
17727;SDS011;8984;49.268;12.302;2024-02-21T08:45:01;10.63;;;4.53;;
17727;SDS011;8984;49.268;12.302;2024-02-21T08:47:28;11.70;;;6.03;;
17727;SDS011;8984;49.268;12.302;2024-02-21T08:49:55;11.90;;;4.20;;
17727;SDS011;8984;49.268;12.302;2024-02-21T08:52:22;13.17;;;5.77;;
17727;SDS011;8984;49.268;12.302;2024-02-21T08:54:49;11.90;;;4.87;;
17727;SDS011;8984;49.268;12.302;2024-02-21T08:57:18;13.57;;;5.90;;
17727;SDS011;8984;49.268;12.302;2024-02-21T08:59:46;12.10;;;5.30;;
17727;SDS011;8984;49.268;12.302;2024-02-21T09:02:13;11.93;;;4.13;;
17727;SDS011;8984;49.268;12.302;2024-02-21T09:04:41;9.80;;;3.73;;
17727;SDS011;8984;49.268;12.302;2024-02-21T09:07:08;12.33;;;3.90;;
17727;SDS011;8984;49.268;12.302;2024-02-21T09:09:36;11.53;;;3.97;;
17727;SDS011;8984;49.268;12.302;2024-02-21T09:12:04;8.50;;;3.73;;
17727;SDS011;8984;49.268;12.302;2024-02-21T09:14:31;8.57;;;3.90;;
17727;SDS011;8984;49.268;12.302;2024-02-21T09:17:00;8.87;;;3.83;;
17727;SDS011;8984;49.268;12.302;2024-02-21T09:19:27;12.17;;;3.80;;
17727;SDS011;8984;49.268;12.302;2024-02-21T09:21:54;7.57;;;3.10;;
17727;SDS011;8984;49.268;12.302;2024-02-21T09:24:21;7.10;;;3.40;;
17727;SDS011;8984;49.268;12.302;2024-02-21T09:26:48;9.37;;;3.93;;
17727;SDS011;8984;49.268;12.302;2024-02-21T09:29:15;13.17;;;4.27;;
17727;SDS011;8984;49.268;12.302;2024-02-21T09:31:41;10.53;;;4.07;;
17727;SDS011;8984;49.268;12.302;2024-02-21T09:34:10;8.63;;;3.83;;
17727;SDS011;8984;49.268;12.302;2024-02-21T09:36:37;12.07;;;3.67;;
17727;SDS011;8984;49.268;12.302;2024-02-21T09:39:05;9.60;;;3.60;;
17727;SDS011;8984;49.268;12.302;2024-02-21T09:41:32;7.43;;;3.30;;
17727;SDS011;8984;49.268;12.302;2024-02-21T09:44:04;10.33;;;3.83;;
17727;SDS011;8984;49.268;12.302;2024-02-21T09:46:35;10.27;;;3.60;;
17727;SDS011;8984;49.268;12.302;2024-02-21T09:49:11;9.47;;;3.60;;
17727;SDS011;8984;49.268;12.302;2024-02-21T09:51:47;12.77;;;3.70;;
17727;SDS011;8984;49.268;12.302;2024-02-21T09:54:17;10.50;;;3.70;;
17727;SDS011;8984;49.268;12.302;2024-02-21T09:56:45;8.40;;;3.97;;
17727;SDS011;8984;49.268;12.302;2024-02-21T09:59:13;14.20;;;3.90;;
17727;SDS011;8984;49.268;12.302;2024-02-21T10:01:41;8.40;;;3.90;;
17727;SDS011;8984;49.268;12.302;2024-02-21T10:04:10;8.77;;;3.30;;
17727;SDS011;8984;49.268;12.302;2024-02-21T10:06:37;10.07;;;3.80;;
17727;SDS011;8984;49.268;12.302;2024-02-21T10:09:04;10.50;;;3.57;;
17727;SDS011;8984;49.268;12.302;2024-02-21T10:11:32;9.70;;;3.30;;
17727;SDS011;8984;49.268;12.302;2024-02-21T10:14:03;8.73;;;3.63;;
17727;SDS011;8984;49.268;12.302;2024-02-21T10:16:31;7.43;;;3.10;;
17727;SDS011;8984;49.268;12.302;2024-02-21T10:18:58;6.33;;;2.77;;
17727;SDS011;8984;49.268;12.302;2024-02-21T10:21:26;11.93;;;3.63;;
17727;SDS011;8984;49.268;12.302;2024-02-21T10:23:54;5.60;;;2.67;;
17727;SDS011;8984;49.268;12.302;2024-02-21T10:26:21;7.90;;;3.03;;
17727;SDS011;8984;49.268;12.302;2024-02-21T10:28:48;6.50;;;3.10;;
17727;SDS011;8984;49.268;12.302;2024-02-21T10:31:23;7.53;;;3.40;;
17727;SDS011;8984;49.268;12.302;2024-02-21T10:33:54;9.93;;;3.20;;
17727;SDS011;8984;49.268;12.302;2024-02-21T10:36:22;5.97;;;3.03;;
17727;SDS011;8984;49.268;12.302;2024-02-21T10:38:51;12.30;;;3.50;;
17727;SDS011;8984;49.268;12.302;2024-02-21T10:41:19;8.70;;;3.40;;
17727;SDS011;8984;49.268;12.302;2024-02-21T10:43:50;7.43;;;3.30;;
17727;SDS011;8984;49.268;12.302;2024-02-21T10:46:18;8.30;;;3.20;;
17727;SDS011;8984;49.268;12.302;2024-02-21T10:48:47;9.57;;;3.20;;
17727;SDS011;8984;49.268;12.302;2024-02-21T10:51:20;9.20;;;3.50;;
17727;SDS011;8984;49.268;12.302;2024-02-21T10:54:06;5.27;;;2.73;;
17727;SDS011;8984;49.268;12.302;2024-02-21T10:56:44;8.53;;;3.27;;
17727;SDS011;8984;49.268;12.302;2024-02-21T10:59:12;6.43;;;2.80;;
17727;SDS011;8984;49.268;12.302;2024-02-21T11:01:41;7.07;;;3.13;;
17727;SDS011;8984;49.268;12.302;2024-02-21T11:04:08;10.40;;;3.07;;
17727;SDS011;8984;49.268;12.302;2024-02-21T11:06:37;7.97;;;3.37;;
17727;SDS011;8984;49.268;12.302;2024-02-21T11:09:07;8.93;;;2.80;;
17727;SDS011;8984;49.268;12.302;2024-02-21T11:11:34;8.37;;;3.20;;
17727;SDS011;8984;49.268;12.302;2024-02-21T11:14:05;7.13;;;2.90;;
17727;SDS011;8984;49.268;12.302;2024-02-21T11:16:37;13.53;;;5.17;;
17727;SDS011;8984;49.268;12.302;2024-02-21T11:19:05;11.20;;;3.53;;
17727;SDS011;8984;49.268;12.302;2024-02-21T11:21:34;10.27;;;3.73;;
17727;SDS011;8984;49.268;12.302;2024-02-21T11:24:01;9.50;;;3.70;;
17727;SDS011;8984;49.268;12.302;2024-02-21T11:26:29;9.53;;;3.27;;
17727;SDS011;8984;49.268;12.302;2024-02-21T11:28:57;7.40;;;3.33;;
17727;SDS011;8984;49.268;12.302;2024-02-21T11:31:24;7.60;;;3.03;;
17727;SDS011;8984;49.268;12.302;2024-02-21T11:33:53;7.40;;;3.00;;
17727;SDS011;8984;49.268;12.302;2024-02-21T11:36:23;8.43;;;3.00;;
17727;SDS011;8984;49.268;12.302;2024-02-21T11:38:51;9.17;;;2.90;;
17727;SDS011;8984;49.268;12.302;2024-02-21T11:41:18;6.43;;;2.50;;
17727;SDS011;8984;49.268;12.302;2024-02-21T11:43:47;4.83;;;2.67;;
17727;SDS011;8984;49.268;12.302;2024-02-21T11:46:15;8.13;;;2.90;;
17727;SDS011;8984;49.268;12.302;2024-02-21T11:48:42;10.97;;;3.53;;
17727;SDS011;8984;49.268;12.302;2024-02-21T11:51:19;6.37;;;2.70;;
17727;SDS011;8984;49.268;12.302;2024-02-21T11:53:48;6.70;;;2.80;;
17727;SDS011;8984;49.268;12.302;2024-02-21T11:56:15;5.40;;;2.70;;
17727;SDS011;8984;49.268;12.302;2024-02-21T11:58:41;7.27;;;2.97;;
17727;SDS011;8984;49.268;12.302;2024-02-21T12:01:10;3.80;;;2.10;;
17727;SDS011;8984;49.268;12.302;2024-02-21T12:03:37;8.00;;;2.80;;
17727;SDS011;8984;49.268;12.302;2024-02-21T12:06:06;9.07;;;2.60;;
17727;SDS011;8984;49.268;12.302;2024-02-21T12:08:40;6.27;;;2.30;;
17727;SDS011;8984;49.268;12.302;2024-02-21T12:11:15;10.63;;;2.80;;
17727;SDS011;8984;49.268;12.302;2024-02-21T12:13:44;6.27;;;2.60;;
17727;SDS011;8984;49.268;12.302;2024-02-21T12:16:13;5.80;;;2.70;;
17727;SDS011;8984;49.268;12.302;2024-02-21T12:18:41;9.10;;;3.10;;
17727;SDS011;8984;49.268;12.302;2024-02-21T12:21:08;5.60;;;2.67;;
17727;SDS011;8984;49.268;12.302;2024-02-21T12:23:37;7.97;;;2.63;;
17727;SDS011;8984;49.268;12.302;2024-02-21T12:26:04;5.93;;;2.50;;
17727;SDS011;8984;49.268;12.302;2024-02-21T12:28:33;5.77;;;2.30;;
17727;SDS011;8984;49.268;12.302;2024-02-21T12:30:59;5.17;;;2.07;;
17727;SDS011;8984;49.268;12.302;2024-02-21T12:33:30;8.73;;;2.70;;
17727;SDS011;8984;49.268;12.302;2024-02-21T12:35:58;4.73;;;2.40;;
17727;SDS011;8984;49.268;12.302;2024-02-21T12:38:24;8.63;;;2.90;;
17727;SDS011;8984;49.268;12.302;2024-02-21T12:40:51;5.80;;;2.80;;
17727;SDS011;8984;49.268;12.302;2024-02-21T12:43:18;6.67;;;2.17;;
17727;SDS011;8984;49.268;12.302;2024-02-21T12:45:47;3.77;;;2.23;;
17727;SDS011;8984;49.268;12.302;2024-02-21T12:48:14;8.77;;;2.47;;
17727;SDS011;8984;49.268;12.302;2024-02-21T12:50:43;7.63;;;2.60;;
17727;SDS011;8984;49.268;12.302;2024-02-21T12:53:16;5.43;;;2.83;;
17727;SDS011;8984;49.268;12.302;2024-02-21T12:55:44;5.67;;;2.43;;
17727;SDS011;8984;49.268;12.302;2024-02-21T12:58:11;6.10;;;2.60;;
17727;SDS011;8984;49.268;12.302;2024-02-21T13:00:38;11.90;;;3.00;;
17727;SDS011;8984;49.268;12.302;2024-02-21T13:03:05;6.43;;;3.07;;
17727;SDS011;8984;49.268;12.302;2024-02-21T13:05:32;6.13;;;2.70;;
17727;SDS011;8984;49.268;12.302;2024-02-21T13:08:01;9.27;;;3.20;;
17727;SDS011;8984;49.268;12.302;2024-02-21T13:10:28;9.10;;;4.27;;
17727;SDS011;8984;49.268;12.302;2024-02-21T13:12:55;7.83;;;4.50;;
17727;SDS011;8984;49.268;12.302;2024-02-21T13:15:21;4.93;;;2.70;;
17727;SDS011;8984;49.268;12.302;2024-02-21T13:17:48;5.27;;;2.60;;
17727;SDS011;8984;49.268;12.302;2024-02-21T13:20:15;6.93;;;2.50;;
17727;SDS011;8984;49.268;12.302;2024-02-21T13:22:42;8.57;;;2.70;;
17727;SDS011;8984;49.268;12.302;2024-02-21T13:25:10;7.97;;;2.83;;
17727;SDS011;8984;49.268;12.302;2024-02-21T13:27:40;6.27;;;2.33;;
17727;SDS011;8984;49.268;12.302;2024-02-21T13:30:07;4.67;;;2.20;;
17727;SDS011;8984;49.268;12.302;2024-02-21T13:32:35;6.27;;;2.10;;
17727;SDS011;8984;49.268;12.302;2024-02-21T13:35:02;5.87;;;2.30;;
17727;SDS011;8984;49.268;12.302;2024-02-21T13:37:28;4.80;;;2.23;;
17727;SDS011;8984;49.268;12.302;2024-02-21T13:39:55;7.27;;;2.10;;
17727;SDS011;8984;49.268;12.302;2024-02-21T13:42:23;6.67;;;2.33;;
17727;SDS011;8984;49.268;12.302;2024-02-21T13:44:52;4.70;;;2.00;;
17727;SDS011;8984;49.268;12.302;2024-02-21T13:47:19;5.17;;;1.93;;
17727;SDS011;8984;49.268;12.302;2024-02-21T13:49:47;4.80;;;2.03;;
17727;SDS011;8984;49.268;12.302;2024-02-21T13:52:15;5.67;;;2.00;;
17727;SDS011;8984;49.268;12.302;2024-02-21T13:54:42;6.10;;;1.90;;
17727;SDS011;8984;49.268;12.302;2024-02-21T13:57:08;4.23;;;1.90;;
17727;SDS011;8984;49.268;12.302;2024-02-21T13:59:37;4.70;;;1.70;;
17727;SDS011;8984;49.268;12.302;2024-02-21T14:02:04;3.70;;;1.67;;
17727;SDS011;8984;49.268;12.302;2024-02-21T14:04:33;7.37;;;1.90;;
17727;SDS011;8984;49.268;12.302;2024-02-21T14:06:59;2.97;;;1.50;;
17727;SDS011;8984;49.268;12.302;2024-02-21T14:09:27;3.50;;;1.67;;
17727;SDS011;8984;49.268;12.302;2024-02-21T14:11:54;4.63;;;1.63;;
17727;SDS011;8984;49.268;12.302;2024-02-21T14:14:21;3.63;;;1.60;;
17727;SDS011;8984;49.268;12.302;2024-02-21T14:16:49;5.13;;;1.90;;
17727;SDS011;8984;49.268;12.302;2024-02-21T14:19:16;4.47;;;1.60;;
17727;SDS011;8984;49.268;12.302;2024-02-21T14:21:43;6.37;;;1.90;;
17727;SDS011;8984;49.268;12.302;2024-02-21T14:24:10;4.63;;;1.90;;
17727;SDS011;8984;49.268;12.302;2024-02-21T14:26:37;7.23;;;1.97;;
17727;SDS011;8984;49.268;12.302;2024-02-21T14:29:06;4.80;;;1.87;;
17727;SDS011;8984;49.268;12.302;2024-02-21T14:31:33;5.67;;;2.30;;
17727;SDS011;8984;49.268;12.302;2024-02-21T14:34:01;9.27;;;2.60;;
17727;SDS011;8984;49.268;12.302;2024-02-21T14:36:28;5.67;;;1.90;;
17727;SDS011;8984;49.268;12.302;2024-02-21T14:38:59;4.03;;;1.73;;
17727;SDS011;8984;49.268;12.302;2024-02-21T14:41:41;4.57;;;1.90;;
17727;SDS011;8984;49.268;12.302;2024-02-21T14:44:27;4.13;;;2.10;;